Time;durP1;ratioP1;P1;durP2;ratioP2;P2;SDS_P1;SDS_P2;PMS_P1;PMS_P2;Temp;Humidity;BMP_temperature;BMP_pressure;BME280_temperature;BME280_humidity;BME280_pressure;Samples;Min_cycle;Max_cycle;Signal;HPM_P1;HPM_P2
2022/10/23 00:01:30;;;;;;;4.77;3.43;;;15.70;99.90;;;;;;5050755;28;20669;-70
2022/10/23 00:04:18;;;;;;;4.47;3.47;;;15.70;99.90;;;;;;5037297;28;20426;-70
2022/10/23 00:06:45;;;;;;;6.53;3.17;;;15.70;99.90;;;;;;5020034;28;20433;-70
2022/10/23 00:09:15;;;;;;;5.30;2.90;;;15.70;99.90;;;;;;5044674;28;20458;-70
2022/10/23 00:11:43;;;;;;;5.33;2.90;;;15.70;99.90;;;;;;5032446;28;20969;-71
2022/10/23 00:14:10;;;;;;;4.93;2.73;;;15.70;99.90;;;;;;5030960;28;20427;-71
2022/10/23 00:16:36;;;;;;;4.03;2.90;;;15.70;99.90;;;;;;5051297;28;20397;-71
2022/10/23 00:19:02;;;;;;;3.70;2.90;;;15.70;99.90;;;;;;5041318;28;20717;-70
2022/10/23 00:21:30;;;;;;;7.47;3.00;;;15.70;99.90;;;;;;5018193;28;20421;-70
2022/10/23 00:23:57;;;;;;;5.47;3.00;;;15.70;99.90;;;;;;5046179;28;20415;-70
2022/10/23 00:26:23;;;;;;;5.90;2.70;;;15.70;99.90;;;;;;5016526;28;21039;-71
2022/10/23 00:28:51;;;;;;;2.83;2.50;;;15.60;99.90;;;;;;5044653;28;21015;-70
2022/10/23 00:31:19;;;;;;;5.17;2.93;;;15.60;99.90;;;;;;5051770;28;20439;-70
2022/10/23 00:33:48;;;;;;;3.80;2.50;;;15.60;99.90;;;;;;5037123;28;20422;-70
2022/10/23 00:36:16;;;;;;;5.13;2.50;;;15.60;99.90;;;;;;5031154;28;20424;-70
2022/10/23 00:38:43;;;;;;;9.03;2.70;;;15.60;99.90;;;;;;5045783;28;20454;-70
2022/10/23 00:41:19;;;;;;;4.97;3.50;;;15.60;99.90;;;;;;5017621;28;20927;-70
2022/10/23 00:44:20;;;;;;;5.50;3.30;;;15.60;99.90;;;;;;5037590;28;20455;-70
2022/10/23 00:46:46;;;;;;;4.83;2.57;;;15.60;99.90;;;;;;4935082;29;20460;-70
2022/10/23 00:49:14;;;;;;;2.97;2.20;;;15.60;99.90;;;;;;5001889;28;20506;-70
2022/10/23 00:51:47;;;;;;;6.40;2.50;;;15.60;99.90;;;;;;5032201;28;20464;-70
2022/10/23 00:54:16;;;;;;;3.97;2.73;;;15.60;99.90;;;;;;5033897;28;20411;-70
2022/10/23 00:56:46;;;;;;;5.03;2.73;;;15.60;99.90;;;;;;5014899;28;20476;-70
2022/10/23 00:59:14;;;;;;;4.50;2.37;;;15.60;99.90;;;;;;4997785;28;20409;-70
2022/10/23 01:01:43;;;;;;;4.20;2.30;;;15.60;99.90;;;;;;5015685;28;20768;-70
2022/10/23 01:04:09;;;;;;;4.07;2.90;;;15.60;99.90;;;;;;5017543;28;20789;-70
2022/10/23 01:06:39;;;;;;;5.60;2.47;;;15.50;99.90;;;;;;5024036;28;20624;-70
2022/10/23 01:09:19;;;;;;;5.27;2.73;;;15.50;99.90;;;;;;5014198;28;20450;-70
2022/10/23 01:11:54;;;;;;;2.33;1.80;;;15.60;99.90;;;;;;5000679;28;20607;-70
2022/10/23 01:14:36;;;;;;;3.90;2.50;;;15.50;99.90;;;;;;5000925;28;20424;-70
2022/10/23 01:17:09;;;;;;;3.60;2.20;;;15.50;99.90;;;;;;5029009;28;20427;-70
2022/10/23 01:20:07;;;;;;;6.30;2.43;;;15.50;99.90;;;;;;4997704;28;20994;-70
2022/10/23 01:22:41;;;;;;;3.37;2.10;;;15.50;99.90;;;;;;5041106;28;20978;-70
2022/10/23 01:25:49;;;;;;;4.70;2.40;;;15.50;99.90;;;;;;5019874;28;21074;-70
2022/10/23 01:28:31;;;;;;;3.77;2.70;;;15.50;99.90;;;;;;5028172;28;20529;-70
2022/10/23 01:31:01;;;;;;;3.23;2.13;;;15.50;99.90;;;;;;5017763;28;20882;-71
2022/10/23 01:33:50;;;;;;;10.33;2.20;;;15.50;99.90;;;;;;5015669;28;20439;-70
2022/10/23 01:36:27;;;;;;;5.23;2.40;;;15.50;99.90;;;;;;4993847;28;20901;-70
2022/10/23 01:39:00;;;;;;;3.40;2.33;;;15.50;99.90;;;;;;5066441;28;20845;-70
2022/10/23 01:41:39;;;;;;;5.20;2.43;;;15.40;99.90;;;;;;5030547;28;20439;-70
2022/10/23 01:44:23;;;;;;;3.80;2.03;;;15.50;99.90;;;;;;5000082;28;20935;-70
2022/10/23 01:46:51;;;;;;;4.53;2.47;;;15.40;99.90;;;;;;5013536;28;20443;-70
2022/10/23 01:49:21;;;;;;;2.73;2.30;;;15.40;99.90;;;;;;5017966;28;20448;-71
2022/10/23 01:51:56;;;;;;;3.77;2.27;;;15.50;99.90;;;;;;5038227;28;20419;-71
2022/10/23 01:54:30;;;;;;;4.97;2.70;;;15.40;99.90;;;;;;5037274;28;20396;-70
2022/10/23 01:56:58;;;;;;;4.30;2.50;;;15.50;99.90;;;;;;5044980;28;20421;-70
2022/10/23 01:59:34;;;;;;;4.80;2.67;;;15.40;99.90;;;;;;5136737;22;20585;-74
2022/10/23 02:02:06;;;;;;;4.77;2.57;;;15.40;99.90;;;;;;5056316;28;20504;-74
2022/10/23 02:04:47;;;;;;;3.90;2.03;;;15.50;99.90;;;;;;5056691;28;20420;-75
2022/10/23 02:07:15;;;;;;;4.07;2.10;;;15.40;99.90;;;;;;5060234;28;20498;-76
2022/10/23 02:09:41;;;;;;;5.17;2.47;;;15.40;99.90;;;;;;5051672;28;20422;-76
2022/10/23 02:12:33;;;;;;;6.17;2.00;;;15.40;99.90;;;;;;5045497;28;20405;-77
2022/10/23 02:15:19;;;;;;;4.33;2.17;;;15.40;99.90;;;;;;5053570;28;20433;-76
2022/10/23 02:18:13;;;;;;;2.93;2.33;;;15.40;99.90;;;;;;5049620;28;20463;-75
2022/10/23 02:20:41;;;;;;;7.07;2.27;;;15.40;99.90;;;;;;5059549;28;20790;-76
2022/10/23 02:23:17;;;;;;;5.67;2.10;;;15.40;99.90;;;;;;5075176;28;20761;-76
2022/10/23 02:25:56;;;;;;;2.03;1.60;;;15.40;99.90;;;;;;5052864;28;20810;-76
2022/10/23 02:28:33;;;;;;;4.80;2.37;;;15.40;99.90;;;;;;5052405;28;20464;-76
2022/10/23 02:31:07;;;;;;;2.50;1.70;;;15.40;99.90;;;;;;5040933;28;20420;-76
2022/10/23 02:33:34;;;;;;;2.90;2.50;;;15.40;99.90;;;;;;5040095;28;20436;-76
2022/10/23 02:36:03;;;;;;;3.57;2.03;;;15.40;99.90;;;;;;5058242;28;20576;-76
2022/10/23 02:38:41;;;;;;;3.00;2.00;;;15.40;99.90;;;;;;5042639;28;20452;-76
2022/10/23 02:41:21;;;;;;;2.43;1.77;;;15.40;99.90;;;;;;5057713;28;20433;-76
2022/10/23 02:44:04;;;;;;;3.70;1.83;;;15.40;99.90;;;;;;5056272;28;20409;-76
2022/10/23 02:46:52;;;;;;;5.33;2.20;;;15.40;99.90;;;;;;5056233;28;20394;-76
2022/10/23 02:49:30;;;;;;;5.43;2.23;;;15.40;99.90;;;;;;5065802;28;20871;-76
2022/10/23 02:52:09;;;;;;;4.90;2.63;;;15.40;99.90;;;;;;5094016;28;20431;-76
2022/10/23 02:54:48;;;;;;;3.10;2.10;;;15.40;99.90;;;;;;5057894;28;20481;-76
2022/10/23 02:57:20;;;;;;;4.30;2.20;;;15.40;99.90;;;;;;5059297;28;20464;-76
2022/10/23 03:00:00;;;;;;;4.03;2.00;;;15.40;99.90;;;;;;5039227;28;20443;-76
2022/10/23 03:02:55;;;;;;;4.60;2.03;;;15.40;99.90;;;;;;5055767;28;20511;-76
2022/10/23 03:05:32;;;;;;;2.87;1.97;;;15.40;99.90;;;;;;5049542;28;20446;-76
2022/10/23 03:07:58;;;;;;;5.20;2.17;;;15.40;99.90;;;;;;5042761;28;20470;-76
2022/10/23 03:10:25;;;;;;;2.50;2.30;;;15.40;99.90;;;;;;5045007;28;20413;-76
2022/10/23 03:12:52;;;;;;;3.07;2.00;;;15.40;99.90;;;;;;5057716;28;20440;-76
2022/10/23 03:15:20;;;;;;;4.03;1.90;;;15.30;99.90;;;;;;5075599;28;20431;-76
2022/10/23 03:17:50;;;;;;;3.47;2.17;;;15.40;99.90;;;;;;5058811;28;20444;-76
2022/10/23 03:20:19;;;;;;;2.37;1.90;;;15.30;99.90;;;;;;5058739;28;20452;-76
2022/10/23 03:22:48;;;;;;;3.53;1.80;;;15.30;99.90;;;;;;5050054;28;20441;-76
2022/10/23 03:25:18;;;;;;;2.67;2.10;;;15.30;99.90;;;;;;5071339;28;20431;-76
2022/10/23 03:27:47;;;;;;;3.43;1.97;;;15.30;99.90;;;;;;5038634;28;20552;-76
2022/10/23 03:30:15;;;;;;;3.83;2.00;;;15.30;99.90;;;;;;5041969;28;20413;-76
2022/10/23 03:32:41;;;;;;;6.67;2.10;;;15.30;99.90;;;;;;5058584;28;20429;-75
2022/10/23 03:35:09;;;;;;;3.10;1.67;;;15.30;99.90;;;;;;5046608;28;20425;-76
2022/10/23 03:37:36;;;;;;;2.63;1.80;;;15.30;99.90;;;;;;5058065;28;20822;-76
2022/10/23 03:40:05;;;;;;;1.80;1.60;;;15.30;99.90;;;;;;5057993;28;20424;-76
2022/10/23 03:42:38;;;;;;;3.07;2.00;;;15.30;99.90;;;;;;5058216;28;20767;-76
2022/10/23 03:45:07;;;;;;;1.87;1.53;;;15.30;99.90;;;;;;5057659;28;20468;-76
2022/10/23 03:47:39;;;;;;;3.60;2.00;;;15.30;99.90;;;;;;5058340;28;20460;-76
2022/10/23 03:50:07;;;;;;;4.00;1.90;;;15.30;99.90;;;;;;5056511;28;20418;-76
2022/10/23 03:52:41;;;;;;;4.53;2.40;;;15.30;99.90;;;;;;5040159;28;20430;-75
2022/10/23 03:55:10;;;;;;;2.17;1.90;;;15.30;99.90;;;;;;5056620;28;20949;-76
2022/10/23 03:57:41;;;;;;;4.70;2.03;;;15.30;99.90;;;;;;5042824;28;20843;-76
2022/10/23 04:00:08;;;;;;;2.80;1.93;;;15.30;99.90;;;;;;5057207;28;20566;-76
2022/10/23 04:02:42;;;;;;;2.70;1.80;;;15.30;99.90;;;;;;5058037;28;20421;-76
2022/10/23 04:05:11;;;;;;;2.83;1.77;;;15.30;99.90;;;;;;5074362;28;20439;-76
2022/10/23 04:07:41;;;;;;;6.53;2.20;;;15.30;99.90;;;;;;5038031;28;21093;-76
2022/10/23 04:10:12;;;;;;;4.30;2.10;;;15.30;99.90;;;;;;5064062;28;20440;-76
2022/10/23 04:12:38;;;;;;;2.43;2.07;;;15.20;99.90;;;;;;5055182;28;20767;-76
2022/10/23 04:15:05;;;;;;;2.67;1.97;;;15.30;99.90;;;;;;5064629;28;20908;-76
2022/10/23 04:17:36;;;;;;;5.70;1.90;;;15.30;99.90;;;;;;5060856;28;20568;-76
2022/10/23 04:20:07;;;;;;;2.10;1.70;;;15.20;99.90;;;;;;5074048;28;20410;-76
2022/10/23 04:22:33;;;;;;;4.57;1.90;;;15.30;99.90;;;;;;5073027;28;20817;-76
2022/10/23 04:24:59;;;;;;;2.50;1.80;;;15.30;99.90;;;;;;5073928;28;20423;-76
2022/10/23 04:27:30;;;;;;;2.73;2.20;;;15.20;99.90;;;;;;5065877;28;20797;-76
2022/10/23 04:29:56;;;;;;;2.27;1.97;;;15.20;99.90;;;;;;5054057;28;20433;-76
2022/10/23 04:32:22;;;;;;;2.23;1.87;;;15.20;99.90;;;;;;5037626;28;20419;-76
2022/10/23 04:34:48;;;;;;;2.97;1.70;;;15.20;99.90;;;;;;5054518;28;20430;-76
2022/10/23 04:37:19;;;;;;;1.87;1.60;;;15.20;99.90;;;;;;5069560;28;20569;-76
2022/10/23 04:39:47;;;;;;;4.03;1.80;;;15.20;99.90;;;;;;5047392;28;20435;-76
2022/10/23 04:42:15;;;;;;;3.17;2.07;;;15.20;99.90;;;;;;5054173;28;20442;-76
2022/10/23 04:44:43;;;;;;;2.90;1.77;;;15.20;99.90;;;;;;5055724;28;20429;-76
2022/10/23 04:47:13;;;;;;;2.50;1.87;;;15.20;99.90;;;;;;5051859;28;20465;-76
2022/10/23 04:49:51;;;;;;;2.37;1.87;;;15.20;99.90;;;;;;5037800;28;20422;-76
2022/10/23 04:52:43;;;;;;;3.07;1.63;;;15.20;99.90;;;;;;5044141;28;20449;-76
2022/10/23 04:55:26;;;;;;;2.10;1.70;;;15.20;99.90;;;;;;5078252;28;20550;-76
2022/10/23 04:58:15;;;;;;;3.63;1.87;;;15.20;99.90;;;;;;5065876;28;20453;-76
2022/10/23 05:00:47;;;;;;;2.57;1.93;;;15.20;99.90;;;;;;5054859;28;20541;-76
2022/10/23 05:03:24;;;;;;;3.67;2.67;;;15.20;99.90;;;;;;5062807;28;20456;-76
2022/10/23 05:05:54;;;;;;;3.10;1.67;;;15.20;99.90;;;;;;5053822;28;20771;-76
2022/10/23 05:08:45;;;;;;;2.83;1.80;;;15.20;99.90;;;;;;5080105;28;20468;-76
2022/10/23 05:11:37;;;;;;;3.83;1.70;;;15.20;99.90;;;;;;5048080;28;20477;-76
2022/10/23 05:14:06;;;;;;;2.60;1.43;;;15.20;99.90;;;;;;5057128;28;20470;-76
2022/10/23 05:16:49;;;;;;;2.80;1.87;;;15.20;99.90;;;;;;5053650;28;20414;-76
2022/10/23 05:19:22;;;;;;;2.33;1.97;;;15.20;99.90;;;;;;5033741;28;20417;-76
2022/10/23 05:21:54;;;;;;;4.40;1.93;;;15.20;99.90;;;;;;5077531;28;20433;-76
2022/10/23 05:24:25;;;;;;;1.80;1.67;;;15.20;99.90;;;;;;5075966;28;20452;-76
2022/10/23 05:26:56;;;;;;;4.83;1.80;;;15.20;99.90;;;;;;5076192;28;20432;-76
2022/10/23 05:29:25;;;;;;;3.60;1.80;;;15.20;99.90;;;;;;5077399;28;20476;-76
2022/10/23 05:31:59;;;;;;;2.97;1.80;;;15.20;99.90;;;;;;5075155;28;20949;-76
2022/10/23 05:34:30;;;;;;;2.00;1.60;;;15.20;99.90;;;;;;5056215;28;20421;-76
2022/10/23 05:36:58;;;;;;;3.90;2.27;;;15.20;99.90;;;;;;5075983;28;20420;-76
2022/10/23 05:39:24;;;;;;;3.30;1.97;;;15.20;99.90;;;;;;5077245;28;20433;-76
2022/10/23 05:41:53;;;;;;;4.40;1.83;;;15.20;99.90;;;;;;5044515;28;20497;-76
2022/10/23 05:44:22;;;;;;;6.87;2.13;;;15.20;99.90;;;;;;5046594;28;20498;-76
2022/10/23 05:47:11;;;;;;;4.20;1.83;;;15.20;99.90;;;;;;5051774;28;20472;-76
2022/10/23 05:50:07;;;;;;;5.10;2.07;;;15.20;99.90;;;;;;5093822;28;20463;-76
2022/10/23 05:52:54;;;;;;;2.80;1.53;;;15.20;99.90;;;;;;5075663;28;20392;-76
2022/10/23 05:55:49;;;;;;;6.80;2.43;;;15.20;99.90;;;;;;4974477;28;20583;-76
2022/10/23 05:58:30;;;;;;;2.73;1.80;;;15.20;99.90;;;;;;5069995;28;20536;-76
2022/10/23 06:01:17;;;;;;;3.00;2.07;;;15.20;99.90;;;;;;5045572;28;20450;-76
2022/10/23 06:04:05;;;;;;;5.63;2.00;;;15.20;99.90;;;;;;5056923;28;20411;-76
2022/10/23 06:06:49;;;;;;;2.37;1.87;;;15.20;99.90;;;;;;5088698;28;20428;-76
2022/10/23 06:09:21;;;;;;;4.53;2.03;;;15.20;99.90;;;;;;5042168;28;20615;-76
2022/10/23 06:11:54;;;;;;;4.47;1.90;;;15.20;99.90;;;;;;5069544;28;20920;-76
2022/10/23 06:14:21;;;;;;;2.43;1.83;;;15.10;99.90;;;;;;5074140;28;20425;-76
2022/10/23 06:16:49;;;;;;;3.73;1.90;;;15.20;99.90;;;;;;5064708;28;20418;-76
2022/10/23 06:19:16;;;;;;;2.60;2.33;;;15.20;99.90;;;;;;5074021;28;20544;-76
2022/10/23 06:21:43;;;;;;;3.03;1.80;;;15.20;99.90;;;;;;5041241;28;20430;-76
2022/10/23 06:24:14;;;;;;;3.00;1.80;;;15.20;99.90;;;;;;5056447;28;20421;-76
2022/10/23 06:26:51;;;;;;;2.77;1.80;;;15.20;99.90;;;;;;5076419;28;20400;-76
2022/10/23 06:29:21;;;;;;;5.20;1.97;;;15.20;99.90;;;;;;5059734;28;20989;-75
2022/10/23 06:31:49;;;;;;;2.80;2.10;;;15.10;99.90;;;;;;5040929;28;20454;-75
2022/10/23 06:34:15;;;;;;;3.17;2.10;;;15.20;99.90;;;;;;5071496;28;20413;-75
2022/10/23 06:37:03;;;;;;;4.57;2.30;;;15.10;99.90;;;;;;5047864;28;21000;-75
2022/10/23 06:39:32;;;;;;;3.23;2.10;;;15.10;99.90;;;;;;5056759;28;20436;-75
2022/10/23 06:42:18;;;;;;;4.40;3.90;;;15.10;99.90;;;;;;5071099;28;20450;-75
2022/10/23 06:44:56;;;;;;;4.80;1.90;;;15.10;99.90;;;;;;5076664;28;20956;-75
2022/10/23 06:47:45;;;;;;;3.13;1.90;;;15.20;99.90;;;;;;5067851;28;20832;-76
2022/10/23 06:50:30;;;;;;;5.20;1.93;;;15.20;99.90;;;;;;5049987;28;20455;-75
2022/10/23 06:53:01;;;;;;;3.87;1.80;;;15.10;99.90;;;;;;5057997;28;20430;-75
2022/10/23 06:55:29;;;;;;;4.33;1.77;;;15.10;99.90;;;;;;5051521;28;20445;-75
2022/10/23 06:57:58;;;;;;;6.80;2.13;;;15.10;99.90;;;;;;5042661;28;20852;-76
2022/10/23 07:00:24;;;;;;;3.33;1.70;;;15.10;99.90;;;;;;5059327;28;20480;-75
2022/10/23 07:02:53;;;;;;;6.90;1.83;;;15.20;99.90;;;;;;5041346;28;20857;-75
2022/10/23 07:05:20;;;;;;;2.80;1.43;;;15.10;99.90;;;;;;5044915;28;20430;-75
2022/10/23 07:07:50;;;;;;;2.70;1.70;;;15.10;99.90;;;;;;5057381;28;20464;-75
2022/10/23 07:10:25;;;;;;;3.10;1.90;;;15.20;99.90;;;;;;5093549;28;20826;-75
2022/10/23 07:12:59;;;;;;;5.00;2.30;;;15.20;99.90;;;;;;5063662;28;20426;-75
2022/10/23 07:15:48;;;;;;;7.40;2.00;;;15.20;99.90;;;;;;5062610;28;20428;-75
2022/10/23 07:18:23;;;;;;;2.60;1.87;;;15.10;99.90;;;;;;5055150;28;20524;-75
2022/10/23 07:21:16;;;;;;;5.33;2.03;;;15.10;99.90;;;;;;5056275;28;20520;-75
2022/10/23 07:23:42;;;;;;;2.70;1.60;;;15.20;99.90;;;;;;5022568;28;20413;-75
2022/10/23 07:26:14;;;;;;;5.43;1.83;;;15.10;99.90;;;;;;5056788;28;20414;-75
2022/10/23 07:28:45;;;;;;;2.00;1.50;;;15.20;99.90;;;;;;5058433;28;20895;-75
2022/10/23 07:31:15;;;;;;;3.23;1.70;;;15.10;99.90;;;;;;5057455;28;21067;-75
2022/10/23 07:34:17;;;;;;;3.80;1.70;;;15.10;99.90;;;;;;5075148;28;20856;-75
2022/10/23 07:36:45;;;;;;;3.70;1.93;;;15.20;99.90;;;;;;5074896;28;20427;-75
2022/10/23 07:39:15;;;;;;;2.10;1.60;;;15.10;99.90;;;;;;5058530;28;20418;-75
2022/10/23 07:41:48;;;;;;;2.80;2.00;;;15.10;99.90;;;;;;5051929;28;20922;-75
2022/10/23 07:44:19;;;;;;;2.40;2.07;;;15.20;99.90;;;;;;5066060;28;20412;-75
2022/10/23 07:46:45;;;;;;;2.23;1.80;;;15.20;99.90;;;;;;5043481;28;20482;-75
2022/10/23 07:49:12;;;;;;;2.23;1.60;;;15.10;99.90;;;;;;5021320;28;20498;-75
2022/10/23 07:51:39;;;;;;;3.63;1.97;;;15.20;99.90;;;;;;5060783;28;20490;-75
2022/10/23 07:54:11;;;;;;;3.33;2.27;;;15.20;99.90;;;;;;5061484;28;20409;-75
2022/10/23 07:56:58;;;;;;;2.03;1.77;;;15.20;99.90;;;;;;5059585;28;20555;-75
2022/10/23 07:59:40;;;;;;;4.40;1.50;;;15.20;99.90;;;;;;5062303;28;20777;-76
2022/10/23 08:02:19;;;;;;;2.50;1.53;;;15.20;99.90;;;;;;5053981;28;20872;-75
2022/10/23 08:04:48;;;;;;;4.30;1.97;;;15.20;99.90;;;;;;5070189;28;20424;-75
2022/10/23 08:07:35;;;;;;;5.00;1.97;;;15.20;99.90;;;;;;5070167;28;20818;-75
2022/10/23 08:10:06;;;;;;;3.93;1.87;;;15.20;99.90;;;;;;5054586;28;20398;-75
2022/10/23 08:12:33;;;;;;;2.90;1.60;;;15.20;99.90;;;;;;5041758;28;20442;-75
2022/10/23 08:15:03;;;;;;;3.43;2.00;;;15.20;99.90;;;;;;5049658;28;20419;-75
2022/10/23 08:17:38;;;;;;;3.40;1.90;;;15.20;99.90;;;;;;5059518;28;20437;-75
2022/10/23 08:20:18;;;;;;;2.73;1.83;;;15.20;99.90;;;;;;5049873;28;20524;-75
2022/10/23 08:22:55;;;;;;;3.00;2.23;;;15.30;99.90;;;;;;5058036;28;20547;-75
2022/10/23 08:25:26;;;;;;;1.70;1.60;;;15.30;99.90;;;;;;5055877;28;20918;-75
2022/10/23 08:27:54;;;;;;;5.47;1.83;;;15.20;99.90;;;;;;5054410;28;20468;-75
2022/10/23 08:30:25;;;;;;;10.27;2.40;;;15.20;99.90;;;;;;5071207;28;20789;-75
2022/10/23 08:32:55;;;;;;;3.03;1.70;;;15.30;99.90;;;;;;5084989;28;20413;-75
2022/10/23 08:35:28;;;;;;;4.40;1.57;;;15.30;99.90;;;;;;5039176;28;20409;-75
2022/10/23 08:37:55;;;;;;;4.73;2.50;;;15.30;99.90;;;;;;5067847;28;20974;-75
2022/10/23 08:40:26;;;;;;;3.13;1.80;;;15.30;99.90;;;;;;5037239;28;20453;-75
2022/10/23 08:43:38;;;;;;;3.23;2.00;;;15.30;99.90;;;;;;5058062;28;20434;-75
2022/10/23 08:46:28;;;;;;;3.10;1.93;;;15.30;99.90;;;;;;5053938;28;20862;-75
2022/10/23 08:49:54;;;;;;;3.40;1.77;;;15.40;99.90;;;;;;5029952;28;20958;-75
2022/10/23 08:52:41;;;;;;;8.80;2.40;;;15.40;99.90;;;;;;5050467;28;20464;-75
2022/10/23 08:55:39;;;;;;;3.70;1.90;;;15.40;99.90;;;;;;5069217;28;20527;-75
2022/10/23 08:58:14;;;;;;;2.77;1.63;;;15.40;99.90;;;;;;5086558;28;20850;-75
2022/10/23 09:00:44;;;;;;;6.53;1.97;;;15.40;99.90;;;;;;5061116;28;20431;-75
2022/10/23 09:03:16;;;;;;;2.93;1.70;;;15.40;99.90;;;;;;5044061;28;20413;-75
2022/10/23 09:05:45;;;;;;;2.47;1.70;;;15.40;99.90;;;;;;5041253;28;20450;-75
2022/10/23 09:08:17;;;;;;;3.30;1.50;;;15.50;99.90;;;;;;5088264;28;20462;-75
2022/10/23 09:11:00;;;;;;;2.20;1.90;;;15.50;99.90;;;;;;5075226;28;20448;-75
2022/10/23 09:13:58;;;;;;;3.03;1.90;;;15.50;99.90;;;;;;5041699;28;20506;-75
2022/10/23 09:16:38;;;;;;;2.37;1.90;;;15.50;99.90;;;;;;5074263;28;20435;-75
2022/10/23 09:19:16;;;;;;;3.20;1.93;;;15.50;99.90;;;;;;5057229;28;20430;-75
2022/10/23 09:21:48;;;;;;;3.47;1.83;;;15.50;99.90;;;;;;5056137;28;20518;-75
2022/10/23 09:24:18;;;;;;;5.83;1.90;;;15.50;99.90;;;;;;5069199;28;20808;-75
2022/10/23 09:26:50;;;;;;;2.40;1.73;;;15.60;99.90;;;;;;5057221;28;20778;-75
2022/10/23 09:29:34;;;;;;;4.27;1.73;;;15.60;99.90;;;;;;5064304;28;20458;-75
2022/10/23 09:32:04;;;;;;;3.73;1.53;;;15.60;99.90;;;;;;5059410;28;20428;-75
2022/10/23 09:34:33;;;;;;;2.30;2.03;;;15.60;99.90;;;;;;5085498;28;20442;-75
2022/10/23 09:37:20;;;;;;;3.83;2.20;;;15.60;99.90;;;;;;5094522;28;20410;-75
2022/10/23 09:39:46;;;;;;;4.03;1.80;;;15.60;99.90;;;;;;5061345;28;20427;-75
2022/10/23 09:42:21;;;;;;;3.10;1.67;;;15.60;99.90;;;;;;5075751;28;20415;-75
2022/10/23 09:44:54;;;;;;;2.80;1.50;;;15.60;99.90;;;;;;5069882;28;20414;-75
2022/10/23 09:47:25;;;;;;;2.23;1.57;;;15.60;99.90;;;;;;5056888;28;20460;-75
2022/10/23 09:49:55;;;;;;;1.90;1.60;;;15.60;99.90;;;;;;5055970;28;20766;-75
2022/10/23 09:52:32;;;;;;;4.20;1.90;;;15.60;99.90;;;;;;5070128;28;20428;-75
2022/10/23 09:55:01;;;;;;;1.90;1.57;;;15.70;99.90;;;;;;5058432;28;20415;-76
2022/10/23 09:57:37;;;;;;;3.87;2.00;;;15.70;99.90;;;;;;5064682;28;20440;-75
2022/10/23 10:00:14;;;;;;;1.70;1.50;;;15.70;99.90;;;;;;5059643;28;20421;-75
2022/10/23 10:02:59;;;;;;;3.77;1.90;;;15.70;99.90;;;;;;5076920;28;20417;-75
2022/10/23 10:05:41;;;;;;;4.17;1.80;;;15.70;99.90;;;;;;5043971;28;20471;-75
2022/10/23 10:08:24;;;;;;;4.97;2.30;;;15.70;99.90;;;;;;5039513;28;20566;-72
2022/10/23 10:10:56;;;;;;;5.57;1.83;;;15.80;99.90;;;;;;5056329;28;20413;-72
2022/10/23 10:13:40;;;;;;;3.10;1.70;;;15.80;99.90;;;;;;5057799;28;20424;-72
2022/10/23 10:16:22;;;;;;;2.60;2.03;;;15.80;99.90;;;;;;5056278;28;20771;-71
2022/10/23 10:18:55;;;;;;;2.97;1.70;;;15.80;99.90;;;;;;5065262;28;20448;-71
2022/10/23 10:21:29;;;;;;;2.97;1.90;;;15.80;99.90;;;;;;5076462;28;20547;-71
2022/10/23 10:24:04;;;;;;;4.17;1.80;;;15.80;99.90;;;;;;5065822;28;20481;-72
2022/10/23 10:26:38;;;;;;;2.60;2.10;;;15.90;99.90;;;;;;5060907;28;20427;-71
2022/10/23 10:29:24;;;;;;;2.17;1.90;;;15.90;99.90;;;;;;5094547;28;20503;-71
2022/10/23 10:32:18;;;;;;;3.00;1.43;;;15.90;99.90;;;;;;5093799;28;20427;-72
2022/10/23 10:35:16;;;;;;;3.33;1.70;;;15.90;99.90;;;;;;5075528;28;20430;-72
2022/10/23 10:38:03;;;;;;;2.73;1.80;;;15.90;99.90;;;;;;5080068;28;20543;-71
2022/10/23 10:40:37;;;;;;;2.03;1.20;;;15.90;99.90;;;;;;5057225;28;20429;-72
2022/10/23 10:43:25;;;;;;;2.30;1.50;;;15.90;99.90;;;;;;5088098;28;20455;-72
2022/10/23 10:46:21;;;;;;;2.40;1.67;;;15.90;99.90;;;;;;5039976;28;20482;-72
2022/10/23 10:49:02;;;;;;;2.87;2.00;;;15.90;99.90;;;;;;5052566;28;20473;-72
2022/10/23 10:51:45;;;;;;;4.57;1.80;;;16.00;99.90;;;;;;5073622;28;20393;-72
2022/10/23 10:54:29;;;;;;;2.10;1.60;;;16.00;99.90;;;;;;5055441;28;20427;-72
2022/10/23 10:57:01;;;;;;;3.60;1.80;;;16.00;99.90;;;;;;5022717;28;20808;-72
2022/10/23 10:59:30;;;;;;;3.20;2.00;;;16.00;99.90;;;;;;5051596;28;20959;-72
2022/10/23 11:02:02;;;;;;;2.60;1.73;;;16.00;99.90;;;;;;5042102;28;20444;-72
2022/10/23 11:04:43;;;;;;;2.27;1.97;;;16.00;99.90;;;;;;5050379;28;20422;-72
2022/10/23 11:07:17;;;;;;;3.30;1.83;;;16.10;99.90;;;;;;5073037;28;20853;-72
2022/10/23 11:09:45;;;;;;;4.50;1.97;;;16.10;99.90;;;;;;5070006;28;20423;-72
2022/10/23 11:12:23;;;;;;;3.77;1.60;;;16.10;99.90;;;;;;5093394;28;20459;-72
2022/10/23 11:14:52;;;;;;;2.93;1.80;;;16.10;99.90;;;;;;5055410;28;20863;-72
2022/10/23 11:17:36;;;;;;;4.57;2.17;;;16.10;99.90;;;;;;5044675;28;20456;-75
2022/10/23 11:20:14;;;;;;;2.10;1.90;;;16.10;99.90;;;;;;5055787;28;20456;-73
2022/10/23 11:22:46;;;;;;;51.73;4.10;;;16.20;99.90;;;;;;5062265;28;20418;-73
2022/10/23 11:25:20;;;;;;;43.93;4.00;;;16.20;99.90;;;;;;5081070;28;20504;-73
2022/10/23 11:28:11;;;;;;;8.50;2.10;;;16.30;99.90;;;;;;5071104;28;20471;-72
2022/10/23 11:31:00;;;;;;;12.53;2.17;;;16.40;99.90;;;;;;5062656;28;20496;-72
2022/10/23 11:34:00;;;;;;;5.23;2.17;;;16.60;99.90;;;;;;5046377;28;20455;-72
2022/10/23 11:36:45;;;;;;;3.00;1.90;;;16.70;99.90;;;;;;5053492;28;20395;-72
2022/10/23 11:39:25;;;;;;;6.13;1.80;;;16.80;99.90;;;;;;5058064;28;20610;-73
2022/10/23 11:42:04;;;;;;;6.63;1.73;;;16.90;99.90;;;;;;5053734;28;20397;-72
2022/10/23 11:44:47;;;;;;;6.93;1.50;;;17.00;99.90;;;;;;5027301;28;20825;-72
2022/10/23 11:47:35;;;;;;;14.63;2.60;;;17.10;99.90;;;;;;5042895;28;20478;-72
2022/10/23 11:50:07;;;;;;;4.87;1.50;;;17.20;99.90;;;;;;5055517;28;20454;-72
2022/10/23 11:52:57;;;;;;;5.30;1.80;;;17.20;99.90;;;;;;5042642;28;20440;-72
2022/10/23 11:55:28;;;;;;;3.73;1.43;;;17.30;99.90;;;;;;5074124;28;20468;-71
2022/10/23 11:58:03;;;;;;;7.40;1.80;;;17.30;99.90;;;;;;5074197;28;20477;-72
2022/10/23 12:00:38;;;;;;;9.80;2.00;;;17.30;99.90;;;;;;5056689;28;20445;-72
2022/10/23 12:03:29;;;;;;;6.50;1.70;;;17.30;99.90;;;;;;5042256;28;20450;-72
2022/10/23 12:06:03;;;;;;;3.23;1.60;;;17.20;99.90;;;;;;5055916;28;20441;-73
2022/10/23 12:08:38;;;;;;;2.40;1.90;;;17.20;99.90;;;;;;5072750;28;20473;-72
2022/10/23 12:11:04;;;;;;;2.37;1.70;;;17.20;99.90;;;;;;5073953;28;20509;-73
2022/10/23 12:13:36;;;;;;;2.87;1.63;;;17.10;99.90;;;;;;5074157;28;20430;-72
2022/10/23 12:16:07;;;;;;;4.33;1.60;;;17.10;99.90;;;;;;5073719;28;21013;-72
2022/10/23 12:18:50;;;;;;;5.63;1.87;;;17.10;99.90;;;;;;5061327;28;20462;-72
2022/10/23 12:21:27;;;;;;;3.40;1.60;;;17.00;99.90;;;;;;5054303;28;20752;-72
2022/10/23 12:24:24;;;;;;;3.13;1.30;;;17.00;99.90;;;;;;5086858;28;20977;-72
2022/10/23 12:27:21;;;;;;;2.47;1.50;;;17.00;99.90;;;;;;5072793;28;20426;-72
2022/10/23 12:30:12;;;;;;;5.43;1.60;;;17.00;99.90;;;;;;5057122;28;20426;-73
2022/10/23 12:33:28;;;;;;;2.60;1.50;;;17.00;99.90;;;;;;5081136;28;20422;-73
2022/10/23 12:36:08;;;;;;;3.77;1.60;;;17.00;99.90;;;;;;5007797;28;21088;-73
2022/10/23 12:38:44;;;;;;;4.20;2.13;;;16.90;99.90;;;;;;5057284;28;20526;-74
2022/10/23 12:41:21;;;;;;;3.97;2.00;;;17.00;99.90;;;;;;5068699;28;20802;-73
2022/10/23 12:43:57;;;;;;;2.20;1.40;;;17.00;99.90;;;;;;5057624;28;20932;-73
2022/10/23 12:46:49;;;;;;;2.37;1.50;;;16.90;99.90;;;;;;5063085;28;20458;-73
2022/10/23 12:49:21;;;;;;;2.40;1.67;;;16.90;99.90;;;;;;5056654;28;20537;-73
2022/10/23 12:52:08;;;;;;;5.20;1.90;;;16.90;99.90;;;;;;5047915;28;20467;-74
2022/10/23 12:54:38;;;;;;;2.47;2.03;;;16.90;99.90;;;;;;5064502;28;20785;-73
2022/10/23 12:57:26;;;;;;;5.23;1.87;;;16.90;99.90;;;;;;5042095;28;20406;-73
2022/10/23 13:00:09;;;;;;;2.07;1.60;;;16.90;99.90;;;;;;5070906;28;20805;-73
2022/10/23 13:02:35;;;;;;;2.67;1.87;;;17.00;99.90;;;;;;5032791;28;21006;-73
2022/10/23 13:05:06;;;;;;;2.70;1.83;;;17.00;99.90;;;;;;5037082;28;20434;-73
2022/10/23 13:07:41;;;;;;;2.70;1.77;;;17.00;99.90;;;;;;5040709;28;21019;-73
2022/10/23 13:10:14;;;;;;;1.90;1.40;;;17.00;99.90;;;;;;5071363;28;20468;-73
2022/10/23 13:12:57;;;;;;;3.37;1.80;;;17.00;99.90;;;;;;5069294;28;20450;-73
2022/10/23 13:15:26;;;;;;;4.00;1.83;;;17.00;99.90;;;;;;5037229;28;20884;-73
2022/10/23 13:17:57;;;;;;;2.27;1.77;;;17.00;99.90;;;;;;5072491;28;21413;-73
2022/10/23 13:20:51;;;;;;;2.23;1.80;;;17.00;99.90;;;;;;5036991;28;20462;-73
2022/10/23 13:23:30;;;;;;;2.13;1.80;;;17.00;99.90;;;;;;5062673;28;20469;-73
2022/10/23 13:26:02;;;;;;;3.83;2.00;;;17.00;99.90;;;;;;5055627;28;20916;-73
2022/10/23 13:28:47;;;;;;;4.47;2.37;;;17.00;99.90;;;;;;5036782;28;20481;-73
2022/10/23 13:31:13;;;;;;;3.60;2.10;;;17.00;99.90;;;;;;5040030;28;20453;-73